Airfield :







YOU CAN JOIN US ON...

 
LOGIN :

Register | Disclaimer

   EN    FR    IT 

 









Legend :    VFR   Marginal VFR   IFR   Intensive IFR   Very Intensive IFR
Visi :
Ceiling :
>= 8 km
>= 3000ft
5 to 8 km
1000 to 3000 ft
1500m to 5 km
500 to 1000 ft
800 to 1500m
200 to 500 ft
< 800m
< 200 ft
Symbols :   Thunderstorms  Fog  Heavy snow  Heavy precipitations  Wind > 20 kt







- Airport Elevation : 199 ft


KASH - Boire Field

CURRENT METAR :
  • 230556Z AUTO 02009KT 5SM RA BR OVC007 12/12 A2995 RMK AO2 CIG 005V011 SLP152 P0011 60075 T01220122 10139 20122 56010 $

EXPIRED METARs :
  • 230548Z AUTO 01007KT 4SM -RA BR OVC007 12/12 A2995 RMK AO2 CIG 005V011 P0009 $
  • 230536Z AUTO 35009KT 2SM RA BR OVC007 12/12 A2995 RMK AO2 CIG 005V011 P0007 $
  • 230456Z AUTO 34009KT 2SM -RA BR BKN007 OVC010 12/12 A2995 RMK AO2 CIG 005V008 SLP152 P0007 T01220122 402060083 $
  • 230431Z AUTO VRB06KT 2 1/2SM -RA BR OVC007 13/13 A2996 RMK AO2 CIG 006V013 P0004 $
  • 230356Z AUTO 35012G17KT 8SM RA BKN009 OVC014 13/13 A2996 RMK AO2 CIG 006V013 SLP155 P0016 T01330133 $

TAF N/A
KZBW FIR / North America



MET'MAP, your aeronautical weather chart ! - Copyright ORBIFLY December 2007 - Disclaimer

ORBIFLY MET'MAP TEAM :

Programming & Development : Alexandra Zaïnal
Concept & Development : Baudouin d'Aumeries
Co-Development & Prog : Marc-Olivier Méhu
Technical & hardware support : Manuel Goepfert

Contact : metmap@orbifly.com




SOURCES & CREDITS :

   NOAA